Time;durP1;ratioP1;P1;durP2;ratioP2;P2;SDS_P1;SDS_P2;PMS_P1;PMS_P2;Temp;Humidity;BMP_temperature;BMP_pressure;BME280_temperature;BME280_humidity;BME280_pressure;Samples;Min_cycle;Max_cycle;Signal;HPM_P1;HPM_P2
2023/01/30 00:02:13;;;;;;;59.35;35.75;;;5.90;99.90;;;;;;5016984;28;20037;-71
2023/01/30 00:04:38;;;;;;;62.92;36.67;;;5.90;99.90;;;;;;5034569;28;20033;-71
2023/01/30 00:07:04;;;;;;;57.40;36.30;;;5.90;99.90;;;;;;5034245;28;20100;-71
2023/01/30 00:09:30;;;;;;;59.42;37.25;;;5.90;99.90;;;;;;5033249;28;20030;-71
2023/01/30 00:11:55;;;;;;;64.90;36.70;;;5.90;99.90;;;;;;5034229;28;20027;-71
2023/01/30 00:14:21;;;;;;;57.75;34.85;;;5.90;99.90;;;;;;5034381;28;20033;-71
2023/01/30 00:16:46;;;;;;;59.70;36.70;;;5.90;99.90;;;;;;5034416;28;20026;-71
2023/01/30 00:19:12;;;;;;;53.90;36.15;;;6.00;99.90;;;;;;5034127;28;20504;-71
2023/01/30 00:21:37;;;;;;;57.67;36.70;;;6.00;99.90;;;;;;5034243;28;20029;-71
2023/01/30 00:24:04;;;;;;;56.78;34.50;;;6.00;99.90;;;;;;5033146;28;20038;-71
2023/01/30 00:26:29;;;;;;;63.83;37.65;;;6.00;99.90;;;;;;5033119;28;20033;-71
2023/01/30 00:28:55;;;;;;;61.33;37.38;;;6.00;99.90;;;;;;5033084;28;20164;-71
2023/01/30 00:31:20;;;;;;;63.35;37.85;;;6.00;99.90;;;;;;5033200;28;20060;-71
2023/01/30 00:33:46;;;;;;;64.10;37.70;;;6.00;99.90;;;;;;5034675;28;20083;-70
2023/01/30 00:36:12;;;;;;;64.80;38.25;;;6.00;99.90;;;;;;5034075;28;20117;-71
2023/01/30 00:38:37;;;;;;;62.03;36.50;;;6.00;99.90;;;;;;5034326;28;20444;-71
2023/01/30 00:41:03;;;;;;;62.55;37.92;;;6.00;99.90;;;;;;5032538;28;20033;-71
2023/01/30 00:49:12;;;;;;;66.85;39.00;;;6.00;99.90;;;;;;5034013;28;20092;-71
2023/01/30 00:51:38;;;;;;;64.63;38.17;;;6.00;99.90;;;;;;5033708;28;20037;-72
2023/01/30 00:54:03;;;;;;;63.15;36.33;;;6.00;99.90;;;;;;5033574;28;20386;-71
2023/01/30 00:56:29;;;;;;;61.90;37.67;;;6.10;99.90;;;;;;5032517;28;20473;-71
2023/01/30 00:58:55;;;;;;;61.45;37.55;;;6.10;99.90;;;;;;5032369;28;20033;-71
2023/01/30 01:01:20;;;;;;;63.13;39.42;;;6.10;99.90;;;;;;5032505;28;20040;-71
2023/01/30 01:03:47;;;;;;;61.88;36.92;;;6.10;99.90;;;;;;5034162;28;20096;-71
2023/01/30 01:06:13;;;;;;;62.40;36.78;;;6.10;99.90;;;;;;5032127;28;20449;-71
2023/01/30 01:08:38;;;;;;;60.78;37.13;;;6.10;99.90;;;;;;5032891;28;20037;-71
2023/01/30 01:11:04;;;;;;;63.10;38.72;;;6.10;99.90;;;;;;5032893;28;20125;-71
2023/01/30 01:13:29;;;;;;;61.72;38.28;;;6.20;99.90;;;;;;5033655;28;20033;-71
2023/01/30 01:15:55;;;;;;;60.05;36.72;;;6.20;99.90;;;;;;5033338;28;20071;-72
2023/01/30 01:18:21;;;;;;;65.20;37.17;;;6.20;99.90;;;;;;5032971;28;20030;-71
2023/01/30 01:20:46;;;;;;;63.05;37.58;;;6.30;99.90;;;;;;5033476;28;20040;-71
2023/01/30 01:23:12;;;;;;;64.18;37.70;;;6.30;99.90;;;;;;5033080;28;20030;-71
2023/01/30 01:25:38;;;;;;;59.70;37.97;;;6.30;99.90;;;;;;5033582;28;20033;-71
2023/01/30 01:28:03;;;;;;;61.17;39.10;;;6.30;99.90;;;;;;5033463;28;20030;-71
2023/01/30 01:30:29;;;;;;;63.63;38.85;;;6.30;99.90;;;;;;5034056;28;20055;-71
2023/01/30 01:32:56;;;;;;;61.05;38.50;;;6.30;99.90;;;;;;5032309;28;20505;-71
2023/01/30 01:35:22;;;;;;;62.10;39.38;;;6.30;99.90;;;;;;5033513;28;20032;-71
2023/01/30 01:37:47;;;;;;;59.03;38.63;;;6.30;99.90;;;;;;5033625;28;20033;-71
2023/01/30 01:43:18;;;;;;;61.97;39.08;;;6.40;99.90;;;;;;5033443;28;20060;-72
2023/01/30 01:45:46;;;;;;;58.60;39.00;;;6.30;99.90;;;;;;5033735;28;20171;-72
2023/01/30 01:48:18;;;;;;;60.45;39.70;;;6.40;99.90;;;;;;5032386;28;20087;-72
2023/01/30 01:50:55;;;;;;;61.28;38.92;;;6.40;99.90;;;;;;5033434;28;20116;-71
2023/01/30 01:53:26;;;;;;;63.10;38.00;;;6.40;99.90;;;;;;5033304;28;20034;-71
2023/01/30 01:55:54;;;;;;;66.82;40.03;;;6.40;99.90;;;;;;5033929;28;20033;-71
2023/01/30 01:58:27;;;;;;;59.25;38.70;;;6.40;99.90;;;;;;5037217;28;20520;-71
2023/01/30 02:00:54;;;;;;;61.15;37.65;;;6.40;99.90;;;;;;5036316;28;20026;-71
2023/01/30 02:03:24;;;;;;;57.83;36.55;;;6.40;99.90;;;;;;5037504;28;20041;-71
2023/01/30 02:05:53;;;;;;;57.08;37.47;;;6.40;99.90;;;;;;5037218;28;20033;-72
2023/01/30 02:08:37;;;;;;;56.72;37.83;;;6.40;99.90;;;;;;5036647;28;20076;-71
2023/01/30 02:11:03;;;;;;;54.92;35.88;;;6.40;99.90;;;;;;5037078;28;20532;-72
2023/01/30 02:13:29;;;;;;;57.70;36.88;;;6.40;99.90;;;;;;5036749;28;20037;-71
2023/01/30 02:15:57;;;;;;;52.67;35.38;;;6.50;99.90;;;;;;5035190;28;20037;-72
2023/01/30 02:18:23;;;;;;;52.25;35.47;;;6.50;99.90;;;;;;5036886;28;20417;-71
2023/01/30 02:21:05;;;;;;;59.63;35.60;;;6.50;99.90;;;;;;5036788;28;20390;-71
2023/01/30 02:23:55;;;;;;;52.85;33.65;;;6.50;99.90;;;;;;5036673;28;20079;-71
2023/01/30 02:26:38;;;;;;;56.28;34.13;;;6.50;99.90;;;;;;5037114;28;20522;-71
2023/01/30 02:29:29;;;;;;;48.38;32.13;;;6.60;99.90;;;;;;5036451;28;20025;-71
2023/01/30 02:32:39;;;;;;;52.25;32.35;;;6.60;99.90;;;;;;5036780;28;20033;-71
2023/01/30 02:35:30;;;;;;;52.30;33.15;;;6.60;99.90;;;;;;5035771;28;20017;-71
2023/01/30 02:38:18;;;;;;;50.00;31.85;;;6.60;99.90;;;;;;5036350;28;20025;-71
2023/01/30 02:41:00;;;;;;;47.78;28.63;;;6.70;99.90;;;;;;5036003;28;20474;-71
2023/01/30 02:44:00;;;;;;;46.38;28.45;;;6.70;99.90;;;;;;5036571;28;20025;-71
2023/01/30 02:46:30;;;;;;;43.42;27.55;;;6.70;99.90;;;;;;5033071;28;20044;-71
2023/01/30 02:49:07;;;;;;;35.53;22.15;;;6.80;99.90;;;;;;5036718;28;20079;-71
2023/01/30 02:51:37;;;;;;;32.65;20.15;;;6.80;99.90;;;;;;5036249;28;20026;-71
2023/01/30 02:54:09;;;;;;;31.35;18.25;;;6.90;99.90;;;;;;5036490;28;20129;-71
2023/01/30 02:56:48;;;;;;;32.93;18.17;;;6.90;99.90;;;;;;5036309;28;20087;-71
2023/01/30 02:59:20;;;;;;;34.30;19.02;;;6.90;99.90;;;;;;5035188;28;20496;-71
2023/01/30 03:02:10;;;;;;;30.15;16.73;;;6.90;99.90;;;;;;5036235;28;20064;-71
2023/01/30 03:04:42;;;;;;;25.45;16.15;;;7.00;99.90;;;;;;5035444;28;20374;-71
2023/01/30 03:07:33;;;;;;;33.10;17.90;;;7.00;99.90;;;;;;5035021;28;20078;-71
2023/01/30 03:10:36;;;;;;;24.33;15.32;;;7.00;99.90;;;;;;5035677;28;20033;-71
2023/01/30 03:13:19;;;;;;;25.60;16.60;;;7.10;99.90;;;;;;5036062;28;20034;-71
2023/01/30 03:16:08;;;;;;;28.00;16.03;;;7.00;99.90;;;;;;5035243;28;20107;-71
2023/01/30 03:18:34;;;;;;;25.02;14.70;;;7.10;99.90;;;;;;5036101;28;20597;-71
2023/01/30 03:21:04;;;;;;;24.20;14.82;;;7.00;99.90;;;;;;5034510;28;20045;-71
2023/01/30 03:23:30;;;;;;;27.40;15.10;;;7.00;99.90;;;;;;5034183;28;20109;-71
2023/01/30 03:25:56;;;;;;;25.45;15.90;;;7.00;99.90;;;;;;5035721;28;20037;-71
2023/01/30 03:28:22;;;;;;;21.13;15.15;;;7.10;99.90;;;;;;5035402;28;20030;-70
2023/01/30 03:30:48;;;;;;;24.23;14.65;;;7.10;99.90;;;;;;5034009;28;20072;-70
2023/01/30 03:33:14;;;;;;;29.50;14.88;;;7.00;99.90;;;;;;5034574;28;20056;-71
2023/01/30 03:35:40;;;;;;;22.92;13.77;;;7.10;99.90;;;;;;5035535;28;20375;-71
2023/01/30 03:38:05;;;;;;;27.60;14.00;;;7.10;99.90;;;;;;5035685;28;20409;-71
2023/01/30 03:40:31;;;;;;;24.27;13.63;;;7.10;99.90;;;;;;5017225;28;20038;-71
2023/01/30 03:42:57;;;;;;;21.25;12.85;;;7.10;99.90;;;;;;5035096;28;20033;-71
2023/01/30 03:45:22;;;;;;;21.75;12.27;;;7.10;99.90;;;;;;5035057;28;20026;-69
2023/01/30 03:47:48;;;;;;;24.90;12.65;;;7.10;99.90;;;;;;5035581;28;20037;-71
2023/01/30 03:50:14;;;;;;;20.55;10.93;;;7.10;99.90;;;;;;5034944;28;20060;-71
2023/01/30 03:52:39;;;;;;;20.20;11.15;;;7.10;99.90;;;;;;5034824;28;20385;-69
2023/01/30 03:55:06;;;;;;;18.27;10.50;;;7.10;99.90;;;;;;5035165;28;20036;-71
2023/01/30 03:57:31;;;;;;;19.00;10.88;;;7.10;99.90;;;;;;5034806;28;20037;-71
2023/01/30 03:59:57;;;;;;;20.63;10.35;;;7.20;99.90;;;;;;5034751;28;20033;-71
2023/01/30 04:02:24;;;;;;;22.73;10.30;;;7.20;99.90;;;;;;5034448;28;20044;-71
2023/01/30 04:04:51;;;;;;;20.35;11.38;;;7.20;99.90;;;;;;5034742;28;20490;-71
2023/01/30 04:07:16;;;;;;;26.08;11.65;;;7.20;99.90;;;;;;5035173;28;20053;-71
2023/01/30 04:09:42;;;;;;;21.75;10.82;;;7.20;99.90;;;;;;5034448;28;20036;-71
2023/01/30 04:12:08;;;;;;;21.52;10.70;;;7.20;99.90;;;;;;5034488;28;20474;-71
2023/01/30 04:14:33;;;;;;;20.25;11.20;;;7.20;99.90;;;;;;5033737;28;20029;-71
2023/01/30 04:16:59;;;;;;;25.65;11.05;;;7.20;99.90;;;;;;5034961;28;20029;-71
2023/01/30 04:19:25;;;;;;;19.98;10.40;;;7.30;99.90;;;;;;5034043;28;20088;-71
2023/01/30 04:21:50;;;;;;;21.17;10.95;;;7.20;99.90;;;;;;5033070;28;20111;-71
2023/01/30 04:24:16;;;;;;;29.50;11.30;;;7.20;99.90;;;;;;5034838;28;20033;-71
2023/01/30 04:26:41;;;;;;;22.95;11.27;;;7.20;99.90;;;;;;5033970;28;20067;-71
2023/01/30 04:29:07;;;;;;;25.67;11.52;;;7.20;99.90;;;;;;5033097;28;20113;-71
2023/01/30 04:31:33;;;;;;;20.73;10.93;;;7.30;99.90;;;;;;5034408;28;20470;-71
2023/01/30 04:33:58;;;;;;;26.48;11.27;;;7.30;99.90;;;;;;5032815;28;20394;-69
2023/01/30 04:36:24;;;;;;;26.55;11.20;;;7.30;99.90;;;;;;5034445;28;20060;-69
2023/01/30 04:38:50;;;;;;;24.02;10.32;;;7.30;99.90;;;;;;5032814;28;20036;-71
2023/01/30 04:41:16;;;;;;;26.00;10.95;;;7.40;99.90;;;;;;5034017;28;20052;-71
2023/01/30 04:43:41;;;;;;;23.80;10.02;;;7.40;99.90;;;;;;5016303;28;20529;-71
2023/01/30 04:46:07;;;;;;;22.15;10.77;;;7.40;99.90;;;;;;5032685;28;20079;-71
2023/01/30 04:48:32;;;;;;;29.30;11.18;;;7.40;99.90;;;;;;5032803;28;20104;-71
2023/01/30 04:50:58;;;;;;;30.23;10.77;;;7.40;99.90;;;;;;5034039;28;20163;-72
2023/01/30 04:53:24;;;;;;;20.98;10.13;;;7.40;99.90;;;;;;5033931;28;20049;-69
2023/01/30 04:55:50;;;;;;;23.48;9.90;;;7.50;99.90;;;;;;5033017;28;20033;-71
2023/01/30 04:58:18;;;;;;;16.67;9.63;;;7.40;99.90;;;;;;5034105;28;20378;-71
2023/01/30 05:00:44;;;;;;;30.40;9.25;;;7.40;99.90;;;;;;5033435;28;20040;-71
2023/01/30 05:03:10;;;;;;;18.00;8.82;;;7.50;99.90;;;;;;5033457;28;20021;-71
2023/01/30 05:05:35;;;;;;;20.58;8.80;;;7.50;99.90;;;;;;5033651;28;20113;-71
2023/01/30 05:08:01;;;;;;;27.35;8.73;;;7.50;99.90;;;;;;5033813;28;20470;-70
2023/01/30 05:10:26;;;;;;;22.52;7.72;;;7.50;99.90;;;;;;5033617;28;20044;-71
2023/01/30 05:12:52;;;;;;;18.50;6.90;;;7.50;99.90;;;;;;5033641;28;20377;-70
2023/01/30 05:15:18;;;;;;;21.23;7.60;;;7.50;99.90;;;;;;5033680;28;20026;-71
2023/01/30 05:17:43;;;;;;;27.13;7.00;;;7.50;99.90;;;;;;5033882;28;20032;-71
2023/01/30 05:20:12;;;;;;;18.55;6.78;;;7.60;99.90;;;;;;5032250;28;20041;-71
2023/01/30 05:22:38;;;;;;;24.13;6.57;;;7.60;99.90;;;;;;5033503;28;20037;-69
2023/01/30 05:25:04;;;;;;;20.65;6.75;;;7.60;99.90;;;;;;5034090;28;20025;-71
2023/01/30 05:27:30;;;;;;;22.25;5.85;;;7.60;99.90;;;;;;5033472;28;20316;-71
2023/01/30 05:29:55;;;;;;;18.55;5.28;;;7.60;99.90;;;;;;5033703;28;20454;-70
2023/01/30 05:32:21;;;;;;;20.52;5.28;;;7.70;99.90;;;;;;5019380;28;20045;-69
2023/01/30 05:34:48;;;;;;;17.42;4.13;;;7.70;99.90;;;;;;5036323;28;20033;-69
2023/01/30 05:37:14;;;;;;;17.55;4.20;;;7.70;99.90;;;;;;5036735;28;20347;-69
2023/01/30 05:39:40;;;;;;;16.73;4.35;;;7.70;99.90;;;;;;5037733;28;20028;-72
2023/01/30 05:42:06;;;;;;;20.90;3.88;;;7.70;99.90;;;;;;5037115;28;20034;-69
2023/01/30 05:44:31;;;;;;;16.23;2.88;;;7.70;99.90;;;;;;5035893;28;20112;-71
2023/01/30 05:46:57;;;;;;;14.45;3.03;;;7.80;99.90;;;;;;5036025;28;20485;-71
2023/01/30 05:49:23;;;;;;;13.95;2.50;;;7.80;99.90;;;;;;5037212;28;20092;-70
2023/01/30 05:51:49;;;;;;;11.77;2.60;;;7.80;99.90;;;;;;5037027;28;20442;-70
2023/01/30 05:54:14;;;;;;;15.80;2.78;;;7.80;99.90;;;;;;5037142;28;20033;-71
2023/01/30 05:56:40;;;;;;;14.63;2.83;;;7.80;99.90;;;;;;5037099;28;20030;-71
2023/01/30 05:59:05;;;;;;;15.52;2.85;;;7.80;99.90;;;;;;5036191;28;20369;-70
2023/01/30 06:01:31;;;;;;;15.70;2.83;;;7.90;99.90;;;;;;5036641;28;20087;-71
2023/01/30 06:03:57;;;;;;;14.77;2.58;;;7.90;99.90;;;;;;5037311;28;20025;-71
2023/01/30 06:06:24;;;;;;;15.82;2.17;;;7.90;99.90;;;;;;5037252;28;20109;-71
2023/01/30 06:08:54;;;;;;;19.10;2.47;;;7.90;99.90;;;;;;5036759;28;20025;-70
2023/01/30 06:11:20;;;;;;;18.17;1.83;;;7.90;99.90;;;;;;5036616;28;20079;-70
2023/01/30 06:13:46;;;;;;;16.15;2.22;;;7.90;99.90;;;;;;5035285;28;20084;-70
2023/01/30 06:16:13;;;;;;;15.18;1.80;;;7.90;99.90;;;;;;5036139;28;20433;-71
2023/01/30 06:18:39;;;;;;;13.43;2.10;;;7.80;99.90;;;;;;5036233;28;20116;-71
2023/01/30 06:21:06;;;;;;;12.23;1.88;;;7.80;99.90;;;;;;5036054;28;20117;-71
2023/01/30 06:23:32;;;;;;;22.55;2.40;;;7.80;99.90;;;;;;5036361;28;20033;-70
2023/01/30 06:25:58;;;;;;;20.15;1.73;;;7.80;99.90;;;;;;5035909;28;20029;-71
2023/01/30 06:28:24;;;;;;;12.93;1.77;;;7.80;99.90;;;;;;5035964;28;20354;-71
2023/01/30 06:30:51;;;;;;;13.82;2.42;;;7.80;99.90;;;;;;5036196;28;20107;-71
2023/01/30 06:33:17;;;;;;;19.27;2.55;;;7.80;99.90;;;;;;5034915;28;20044;-71
2023/01/30 06:35:43;;;;;;;14.38;2.10;;;7.80;99.90;;;;;;5036396;28;20022;-71
2023/01/30 06:38:10;;;;;;;13.00;1.73;;;7.80;99.90;;;;;;5036050;28;20041;-71
2023/01/30 06:40:36;;;;;;;17.55;2.00;;;7.80;99.90;;;;;;5036582;28;20037;-71
2023/01/30 06:43:02;;;;;;;17.45;2.22;;;7.80;99.90;;;;;;5035644;28;20037;-71
2023/01/30 06:45:28;;;;;;;18.15;2.47;;;7.80;99.90;;;;;;5036227;28;20029;-70
2023/01/30 06:47:55;;;;;;;19.88;2.33;;;7.80;99.90;;;;;;5036185;28;20029;-71
2023/01/30 06:50:23;;;;;;;13.73;1.92;;;7.80;99.90;;;;;;5035963;28;20416;-72
2023/01/30 06:52:50;;;;;;;21.00;2.45;;;7.70;99.90;;;;;;5035662;28;20040;-70
2023/01/30 06:55:18;;;;;;;16.67;2.13;;;7.70;99.90;;;;;;5034788;28;20021;-73
2023/01/30 06:57:44;;;;;;;17.67;2.00;;;7.70;99.90;;;;;;5034435;28;20373;-72
2023/01/30 07:00:13;;;;;;;19.98;2.90;;;7.70;99.90;;;;;;5035993;28;20032;-72
2023/01/30 07:02:39;;;;;;;19.00;2.83;;;7.70;99.90;;;;;;5035822;28;20109;-73
2023/01/30 07:05:06;;;;;;;18.20;2.20;;;7.70;99.90;;;;;;5035347;28;20405;-74
2023/01/30 07:07:33;;;;;;;19.77;2.42;;;7.70;99.90;;;;;;5035841;28;20172;-73
2023/01/30 07:09:59;;;;;;;18.67;2.60;;;7.70;99.90;;;;;;5035474;28;20065;-74
2023/01/30 07:12:25;;;;;;;19.50;2.33;;;7.70;99.90;;;;;;5035499;28;20041;-73
2023/01/30 07:14:51;;;;;;;17.23;2.10;;;7.70;99.90;;;;;;5035678;28;20112;-73
2023/01/30 07:17:18;;;;;;;18.55;2.30;;;7.70;99.90;;;;;;5035054;28;20033;-73
2023/01/30 07:19:44;;;;;;;25.17;3.58;;;7.70;99.90;;;;;;5034308;28;20026;-73
2023/01/30 07:22:10;;;;;;;18.40;2.42;;;7.70;99.90;;;;;;5034917;28;20400;-73
2023/01/30 07:24:36;;;;;;;24.83;2.30;;;7.60;99.90;;;;;;5033653;28;20026;-73
2023/01/30 07:27:01;;;;;;;26.23;2.42;;;7.60;99.90;;;;;;5033509;28;20032;-73
2023/01/30 07:29:27;;;;;;;16.02;2.17;;;7.50;99.90;;;;;;5035206;28;20029;-73
2023/01/30 07:31:53;;;;;;;24.80;2.85;;;7.50;99.90;;;;;;5034956;28;20052;-73
2023/01/30 07:34:19;;;;;;;20.80;2.38;;;7.50;99.90;;;;;;5035586;28;20087;-72
2023/01/30 07:36:44;;;;;;;25.40;2.70;;;7.50;99.90;;;;;;5035075;28;20471;-73
2023/01/30 07:39:10;;;;;;;19.67;3.00;;;7.50;99.90;;;;;;5034765;28;20033;-74
2023/01/30 07:41:36;;;;;;;23.20;2.47;;;7.40;99.90;;;;;;5034368;28;20084;-74
2023/01/30 07:44:02;;;;;;;22.77;3.35;;;7.40;99.90;;;;;;5034926;28;20029;-74
2023/01/30 07:46:33;;;;;;;23.85;3.17;;;7.40;99.90;;;;;;5034947;28;20059;-74
2023/01/30 07:49:00;;;;;;;20.42;3.28;;;7.40;99.90;;;;;;5034850;28;20470;-73
2023/01/30 07:51:26;;;;;;;22.52;2.80;;;7.40;99.90;;;;;;5034833;28;20083;-73
2023/01/30 07:53:52;;;;;;;24.20;3.17;;;7.40;99.90;;;;;;5034083;28;20437;-73
2023/01/30 07:56:18;;;;;;;22.95;2.97;;;7.40;99.90;;;;;;5033422;28;20035;-73
2023/01/30 07:58:45;;;;;;;20.52;2.83;;;7.40;99.90;;;;;;5034435;28;20021;-73
2023/01/30 08:01:10;;;;;;;25.92;3.10;;;7.30;99.90;;;;;;5033501;28;20038;-72
2023/01/30 08:03:36;;;;;;;25.83;3.22;;;7.30;99.90;;;;;;5034613;28;20055;-73
2023/01/30 08:06:02;;;;;;;25.65;2.97;;;7.30;99.90;;;;;;5034333;28;20057;-74
2023/01/30 08:08:27;;;;;;;25.42;3.05;;;7.40;99.90;;;;;;5032659;28;20481;-75
2023/01/30 08:10:53;;;;;;;24.05;3.45;;;7.30;99.90;;;;;;5032766;28;20521;-74
2023/01/30 08:13:18;;;;;;;23.50;2.63;;;7.30;99.90;;;;;;5034283;28;20045;-74
2023/01/30 08:15:44;;;;;;;24.15;2.80;;;7.30;99.90;;;;;;5017035;28;20026;-74
2023/01/30 08:18:10;;;;;;;25.05;2.83;;;7.40;99.90;;;;;;5034056;28;20116;-74
2023/01/30 08:20:36;;;;;;;17.75;2.33;;;7.40;99.90;;;;;;5034120;28;20373;-74
2023/01/30 08:23:02;;;;;;;23.92;2.97;;;7.40;99.90;;;;;;5034050;28;20087;-74
2023/01/30 08:25:28;;;;;;;24.27;2.65;;;7.50;99.90;;;;;;5032797;28;20389;-74
2023/01/30 08:27:54;;;;;;;16.05;2.53;;;7.50;99.90;;;;;;5034465;28;20112;-74
2023/01/30 08:30:21;;;;;;;24.02;2.47;;;7.50;99.90;;;;;;5033507;28;20549;-74
2023/01/30 08:32:46;;;;;;;21.35;2.90;;;7.50;99.90;;;;;;5034193;28;20116;-74
2023/01/30 08:35:12;;;;;;;23.50;2.58;;;7.60;99.90;;;;;;5033179;28;20112;-74
2023/01/30 08:37:39;;;;;;;22.98;2.60;;;7.60;99.90;;;;;;5034273;28;20026;-74
2023/01/30 08:40:06;;;;;;;22.85;3.50;;;7.70;99.90;;;;;;5033661;28;20041;-74
2023/01/30 08:42:32;;;;;;;28.95;3.15;;;7.70;99.90;;;;;;5033743;28;20108;-74
2023/01/30 08:44:57;;;;;;;30.17;3.17;;;7.70;99.90;;;;;;5032477;28;20438;-73
2023/01/30 08:47:23;;;;;;;22.27;3.00;;;7.80;99.90;;;;;;5032360;28;20492;-74
2023/01/30 08:49:50;;;;;;;27.10;2.88;;;7.80;99.90;;;;;;5033419;28;20568;-73
2023/01/30 08:52:16;;;;;;;23.10;2.65;;;7.80;99.90;;;;;;5032642;28;20484;-72
2023/01/30 08:54:41;;;;;;;17.95;3.15;;;7.80;99.90;;;;;;5032086;28;20112;-73
2023/01/30 08:57:07;;;;;;;19.95;2.90;;;7.90;99.90;;;;;;5033271;28;20030;-73
2023/01/30 08:59:32;;;;;;;18.92;2.33;;;7.90;99.90;;;;;;5033573;28;20120;-73
2023/01/30 09:01:58;;;;;;;19.88;3.25;;;7.90;99.90;;;;;;5033375;28;20462;-73
2023/01/30 09:04:25;;;;;;;20.27;3.08;;;8.00;99.90;;;;;;5015718;28;20484;-74
2023/01/30 09:06:51;;;;;;;21.65;2.92;;;8.00;99.90;;;;;;5033211;28;20591;-73
2023/01/30 09:09:17;;;;;;;22.25;3.05;;;8.10;99.90;;;;;;5033538;28;20037;-72
2023/01/30 09:11:42;;;;;;;23.00;3.42;;;8.20;99.90;;;;;;5033483;28;20030;-73
2023/01/30 09:14:08;;;;;;;15.55;2.15;;;8.20;99.90;;;;;;5032929;28;20034;-73
2023/01/30 09:16:34;;;;;;;25.75;3.40;;;8.20;99.90;;;;;;5033406;28;20520;-71
2023/01/30 09:18:59;;;;;;;20.23;3.10;;;8.20;99.90;;;;;;5032943;28;20485;-71
2023/01/30 09:21:25;;;;;;;18.42;2.35;;;8.20;99.90;;;;;;5032816;28;20030;-71
2023/01/30 09:23:51;;;;;;;20.65;2.45;;;8.20;99.90;;;;;;5031607;28;20033;-71
2023/01/30 09:26:16;;;;;;;23.65;3.00;;;8.10;99.90;;;;;;5033131;28;20061;-70
2023/01/30 09:28:42;;;;;;;22.17;2.92;;;8.10;99.90;;;;;;5033321;28;20061;-71
2023/01/30 09:31:07;;;;;;;24.63;2.38;;;8.10;99.90;;;;;;5032986;28;20030;-70
2023/01/30 09:33:33;;;;;;;20.02;2.20;;;8.10;99.90;;;;;;5033028;28;20041;-73
2023/01/30 09:35:59;;;;;;;19.88;2.53;;;8.10;99.90;;;;;;5032395;28;20516;-70
2023/01/30 09:38:24;;;;;;;21.70;2.65;;;8.10;99.90;;;;;;5032470;28;20117;-69
2023/01/30 09:40:59;;;;;;;19.48;2.63;;;8.20;99.90;;;;;;5033484;28;20490;-68
2023/01/30 09:43:34;;;;;;;22.85;2.35;;;8.10;99.90;;;;;;5033022;28;20470;-69
2023/01/30 09:46:17;;;;;;;24.27;2.97;;;8.20;99.90;;;;;;5033176;28;20022;-73
2023/01/30 09:49:00;;;;;;;27.52;3.08;;;8.20;99.90;;;;;;5033375;28;20025;-71
2023/01/30 09:51:35;;;;;;;;;;;8.20;99.90;;;;;;5033706;28;20034;-73
2023/01/30 09:54:13;;;;;;;19.13;2.47;;;8.20;99.90;;;;;;5032753;28;19909;-70
2023/01/30 09:56:39;;;;;;;17.92;2.63;;;8.20;99.90;;;;;;5033104;28;20040;-70
2023/01/30 09:59:05;;;;;;;20.77;2.35;;;8.20;99.90;;;;;;5032918;28;20030;-66
2023/01/30 10:01:53;;;;;;;17.02;2.20;;;8.10;99.90;;;;;;5032541;28;20522;-72
2023/01/30 10:04:30;;;;;;;22.77;3.08;;;8.20;99.90;;;;;;5031273;28;20047;-70
2023/01/30 10:06:58;;;;;;;23.10;2.90;;;8.20;99.90;;;;;;5032207;28;20379;-71
2023/01/30 10:10:08;;;;;;;22.63;3.05;;;8.20;99.90;;;;;;5032147;28;20450;-70
2023/01/30 10:12:52;;;;;;;18.17;2.90;;;8.20;99.90;;;;;;5032616;28;20038;-70
2023/01/30 10:15:21;;;;;;;22.55;2.90;;;8.20;99.90;;;;;;5032496;28;20030;-70
2023/01/30 10:18:05;;;;;;;19.13;2.85;;;8.30;99.90;;;;;;5033940;28;20423;-70
2023/01/30 10:20:34;;;;;;;29.15;3.42;;;8.30;99.90;;;;;;5035952;28;20030;-70
2023/01/30 10:23:31;;;;;;;15.90;2.72;;;8.30;99.90;;;;;;5035505;28;20026;-70
2023/01/30 10:26:21;;;;;;;22.17;3.08;;;8.40;99.90;;;;;;5035122;28;20044;-71
2023/01/30 10:28:56;;;;;;;23.33;3.97;;;8.40;99.90;;;;;;5035988;28;20026;-70
2023/01/30 10:31:26;;;;;;;20.90;2.35;;;8.40;99.90;;;;;;5035726;28;20528;-71
2023/01/30 10:34:05;;;;;;;17.88;2.83;;;8.30;99.90;;;;;;5035679;28;20382;-72
2023/01/30 10:36:50;;;;;;;21.70;2.90;;;8.30;99.90;;;;;;5035130;28;20037;-72
2023/01/30 10:39:40;;;;;;;21.50;3.38;;;8.30;99.90;;;;;;5035801;28;20049;-73
2023/01/30 10:42:14;;;;;;;28.10;3.05;;;8.30;99.90;;;;;;5035663;28;20167;-74
2023/01/30 10:44:41;;;;;;;22.70;2.55;;;8.30;99.90;;;;;;5035967;28;20029;-74
2023/01/30 10:47:30;;;;;;;17.80;2.60;;;8.30;99.90;;;;;;5035348;28;20025;-75
2023/01/30 10:50:04;;;;;;;24.17;2.80;;;8.30;99.90;;;;;;5035250;28;20021;-75
2023/01/30 10:52:33;;;;;;;17.20;2.30;;;8.30;99.90;;;;;;5035783;28;20038;-74
2023/01/30 10:55:28;;;;;;;23.52;3.22;;;8.30;99.90;;;;;;5035137;28;20469;-77
2023/01/30 10:58:22;;;;;;;17.75;2.25;;;8.30;99.90;;;;;;5035108;28;20072;-74
2023/01/30 11:00:59;;;;;;;17.60;2.55;;;8.40;99.90;;;;;;5035451;28;20091;-75
2023/01/30 11:03:40;;;;;;;25.17;3.13;;;8.40;99.90;;;;;;5035290;28;20026;-75
2023/01/30 11:06:18;;;;;;;23.05;2.95;;;8.40;99.90;;;;;;5035590;28;20029;-75
2023/01/30 11:08:45;;;;;;;18.15;3.33;;;8.40;99.90;;;;;;5035599;28;20128;-75
2023/01/30 11:11:29;;;;;;;22.98;2.65;;;8.40;99.90;;;;;;5035054;28;20040;-75
2023/01/30 11:14:21;;;;;;;20.02;3.25;;;8.50;99.90;;;;;;5034929;28;20083;-74
2023/01/30 11:16:52;;;;;;;17.83;2.15;;;8.50;99.90;;;;;;5035155;28;20041;-74
2023/01/30 11:19:23;;;;;;;17.45;2.38;;;8.50;99.90;;;;;;5034819;28;20033;-76
2023/01/30 11:21:54;;;;;;;17.73;2.67;;;8.60;99.90;;;;;;5035357;28;20446;-75
2023/01/30 11:24:23;;;;;;;28.13;2.70;;;8.70;99.90;;;;;;5034042;28;20044;-75
2023/01/30 11:26:51;;;;;;;24.38;3.72;;;8.80;99.90;;;;;;5034533;28;20391;-76
2023/01/30 11:29:29;;;;;;;23.35;3.13;;;8.90;99.80;;;;;;5032424;28;20394;-76
2023/01/30 11:32:00;;;;;;;15.68;2.47;;;8.90;99.40;;;;;;5034660;28;20397;-77
2023/01/30 11:34:26;;;;;;;20.85;2.42;;;8.90;99.00;;;;;;5035015;28;20053;-74
2023/01/30 11:36:52;;;;;;;22.38;2.78;;;8.90;98.90;;;;;;5035119;28;20439;-77
2023/01/30 11:39:22;;;;;;;24.05;3.55;;;9.00;99.00;;;;;;5034656;28;20458;-75
2023/01/30 11:41:57;;;;;;;20.30;2.83;;;9.00;98.60;;;;;;5034124;28;20056;-75
2023/01/30 11:44:27;;;;;;;19.50;2.67;;;9.00;98.50;;;;;;5034794;28;20068;-75
2023/01/30 11:46:56;;;;;;;21.63;2.50;;;9.00;97.70;;;;;;5034287;28;20054;-75
2023/01/30 11:49:23;;;;;;;21.38;2.95;;;9.00;97.50;;;;;;5034597;28;20112;-76
2023/01/30 11:51:52;;;;;;;15.88;3.20;;;9.10;97.80;;;;;;5034274;28;20037;-75
2023/01/30 11:54:26;;;;;;;15.20;2.85;;;9.20;97.50;;;;;;5034620;28;20045;-75
2023/01/30 11:56:55;;;;;;;12.82;2.15;;;9.20;97.10;;;;;;5033389;28;20091;-75
2023/01/30 11:59:35;;;;;;;18.65;2.75;;;9.30;96.60;;;;;;5034539;28;20038;-75
2023/01/30 12:02:13;;;;;;;22.90;2.83;;;9.30;96.50;;;;;;5032724;28;20060;-75
2023/01/30 12:04:44;;;;;;;27.08;3.03;;;9.30;96.30;;;;;;5034588;28;20117;-76
2023/01/30 12:07:27;;;;;;;15.75;2.50;;;9.40;95.20;;;;;;5034370;28;20077;-75
2023/01/30 12:09:55;;;;;;;22.25;3.42;;;9.30;95.70;;;;;;5033739;28;20044;-75
2023/01/30 12:12:26;;;;;;;16.70;2.60;;;9.40;95.70;;;;;;5032763;28;20087;-74
2023/01/30 12:14:57;;;;;;;18.35;2.30;;;9.40;94.50;;;;;;5016566;28;20420;-74
2023/01/30 12:17:47;;;;;;;16.30;2.97;;;9.30;94.60;;;;;;5034243;28;20025;-74
2023/01/30 12:20:18;;;;;;;16.75;3.50;;;9.30;94.40;;;;;;5033899;28;20025;-76
2023/01/30 12:23:00;;;;;;;23.13;3.05;;;9.30;94.30;;;;;;5033096;28;20033;-75
2023/01/30 12:25:34;;;;;;;21.38;2.25;;;9.30;93.70;;;;;;5032900;28;20030;-75
2023/01/30 12:28:03;;;;;;;17.85;3.20;;;9.30;94.10;;;;;;5032953;28;20427;-75
2023/01/30 12:30:31;;;;;;;17.40;2.92;;;9.20;94.50;;;;;;5033637;28;20113;-74
2023/01/30 12:33:02;;;;;;;16.63;2.53;;;9.20;94.80;;;;;;5033386;28;20030;-76
2023/01/30 12:35:35;;;;;;;25.83;3.25;;;9.20;94.50;;;;;;5032194;28;20029;-74
2023/01/30 12:38:01;;;;;;;19.15;3.00;;;9.20;94.60;;;;;;5033881;28;20517;-74
2023/01/30 12:41:16;;;;;;;16.33;2.85;;;9.20;94.60;;;;;;5032975;28;20060;-74
2023/01/30 12:44:13;;;;;;;21.02;2.55;;;9.20;94.80;;;;;;5021268;28;20140;-74
2023/01/30 12:47:04;;;;;;;16.55;2.63;;;9.20;93.80;;;;;;5033605;28;20032;-73
2023/01/30 12:49:48;;;;;;;21.02;3.00;;;9.20;93.30;;;;;;5033757;28;20036;-74
2023/01/30 12:52:42;;;;;;;22.95;2.92;;;9.20;93.50;;;;;;5033596;28;20040;-70
2023/01/30 12:55:35;;;;;;;24.45;2.35;;;9.10;93.50;;;;;;5033489;28;20040;-72
2023/01/30 12:58:07;;;;;;;26.25;9.02;;;9.20;93.80;;;;;;5033855;28;20057;-71
2023/01/30 13:00:38;;;;;;;19.73;3.30;;;9.20;93.70;;;;;;5032700;28;20025;-71
2023/01/30 13:03:44;;;;;;;18.77;3.67;;;9.20;93.80;;;;;;5032920;28;20025;-70
2023/01/30 13:06:29;;;;;;;18.23;2.97;;;9.30;93.90;;;;;;5033226;28;20022;-70
2023/01/30 13:09:17;;;;;;;18.75;2.70;;;9.30;93.60;;;;;;5033170;28;20037;-71